Time;durP1;ratioP1;P1;durP2;ratioP2;P2;SDS_P1;SDS_P2;PMS_P1;PMS_P2;Temp;Humidity;BMP_temperature;BMP_pressure;BME280_temperature;BME280_humidity;BME280_pressure;Samples;Min_cycle;Max_cycle;Signal;HPM_P1;HPM_P2
2021/12/19 00:10:06;;;;;;;0.85;0.75;;;19.90;43.40;;;23.82;28.92;102623.34;5058052;28;20052;-85
2021/12/19 00:12:32;;;;;;;1.58;0.90;;;19.90;43.40;;;23.82;28.81;102629.56;5040062;28;20516;-86
2021/12/19 00:14:58;;;;;;;0.88;0.63;;;19.90;43.40;;;23.82;28.77;102624.22;5039936;28;20045;-85
2021/12/19 00:17:24;;;;;;;1.30;0.73;;;19.90;43.40;;;23.82;28.92;102624.22;5023208;28;20490;-85
2021/12/19 00:19:50;;;;;;;0.80;0.70;;;19.90;43.40;;;23.81;28.76;102625.13;5039990;28;20041;-85
2021/12/19 00:22:18;;;;;;;0.60;0.60;;;19.90;43.40;;;23.80;28.82;102623.38;5056735;28;20071;-85
2021/12/19 00:24:44;;;;;;;1.30;0.80;;;19.90;43.40;;;23.82;28.83;102620.66;5039906;28;20041;-86
2021/12/19 00:27:11;;;;;;;0.73;0.70;;;19.90;43.40;;;23.84;28.89;102617.00;5056336;28;20049;-86
2021/12/19 00:29:37;;;;;;;1.02;0.70;;;19.90;43.40;;;23.84;28.85;102611.66;5039897;28;20048;-86
2021/12/19 00:32:03;;;;;;;0.55;0.50;;;19.90;43.40;;;23.84;28.73;102616.13;5039894;28;20106;-85
2021/12/19 00:34:28;;;;;;;0.88;0.70;;;19.90;43.40;;;23.82;28.87;102604.63;5022698;28;20059;-86
2021/12/19 00:36:54;;;;;;;0.50;0.50;;;19.90;43.50;;;23.83;28.75;102601.91;5055151;28;20053;-85
2021/12/19 00:39:20;;;;;;;1.00;0.70;;;19.90;43.40;;;23.83;28.63;102609.06;5052522;28;20054;-85
2021/12/19 00:41:52;;;;;;;1.10;0.65;;;19.90;43.40;;;23.85;28.69;102612.50;5039060;28;20052;-85
2021/12/19 00:44:23;;;;;;;1.65;0.90;;;19.90;43.40;;;23.84;28.83;102608.97;5056563;28;20056;-86
2021/12/19 00:46:52;;;;;;;1.05;0.77;;;19.90;43.40;;;23.83;28.79;102599.22;5056831;28;20057;-86
2021/12/19 00:49:22;;;;;;;1.05;0.60;;;19.90;43.40;;;23.85;28.79;102605.34;5039311;28;20063;-86
2021/12/19 00:51:48;;;;;;;0.65;0.60;;;19.90;43.40;;;23.83;28.76;102614.41;5056794;28;20119;-85
2021/12/19 00:54:17;;;;;;;1.02;0.70;;;19.90;43.40;;;23.84;28.64;102608.97;5036150;28;20076;-85
2021/12/19 00:56:45;;;;;;;0.88;0.52;;;19.90;43.40;;;23.83;28.96;102601.03;5053867;28;20053;-86
2021/12/19 00:59:12;;;;;;;0.80;0.60;;;19.90;43.40;;;23.84;28.66;102589.44;5039380;28;20520;-85
2021/12/19 01:01:39;;;;;;;2.30;0.95;;;19.90;43.40;;;23.84;28.82;102590.28;5056036;28;20051;-85
2021/12/19 01:04:10;;;;;;;0.60;0.60;;;19.90;43.40;;;23.82;28.79;102586.81;5053852;28;20088;-85
2021/12/19 01:06:37;;;;;;;;;;;19.90;43.50;;;23.94;28.57;102574.69;5056465;28;20051;-85
2021/12/19 01:09:04;;;;;;;0.98;0.70;;;19.90;43.40;;;23.89;28.88;102570.50;5039274;28;19916;-86
2021/12/19 01:11:31;;;;;;;0.75;0.50;;;19.90;43.40;;;23.85;28.82;102575.97;5055826;28;20102;-85
2021/12/19 01:13:57;;;;;;;1.48;0.95;;;19.90;43.40;;;23.84;28.73;102579.59;5039285;28;20093;-85
2021/12/19 01:16:23;;;;;;;1.35;0.77;;;19.90;43.40;;;23.86;28.78;102564.34;5055797;28;20048;-85
2021/12/19 01:18:49;;;;;;;1.40;0.68;;;19.90;43.40;;;23.85;28.73;102567.97;5022598;28;20052;-85
2021/12/19 01:21:16;;;;;;;1.40;0.82;;;19.90;43.40;;;23.84;28.85;102565.38;5020690;28;20397;-86
2021/12/19 01:23:42;;;;;;;0.80;0.70;;;19.90;43.40;;;23.84;28.56;102565.38;5054812;28;20044;-85
2021/12/19 01:26:09;;;;;;;0.77;0.70;;;19.90;43.40;;;23.83;28.83;102572.50;5038055;28;20135;-85
2021/12/19 01:28:35;;;;;;;1.00;0.70;;;19.90;43.40;;;23.82;28.67;102556.56;5055384;28;20090;-85
2021/12/19 01:31:02;;;;;;;1.10;0.77;;;19.90;43.40;;;23.85;28.68;102559.94;5022365;28;20041;-86
2021/12/19 01:33:27;;;;;;;0.73;0.60;;;19.90;43.40;;;23.84;28.78;102552.03;5055540;28;20052;-86
2021/12/19 01:35:53;;;;;;;1.70;0.80;;;19.90;43.40;;;23.84;28.72;102562.72;5037706;28;20041;-86
2021/12/19 01:38:19;;;;;;;0.88;0.60;;;19.90;43.40;;;23.86;28.77;102564.34;5022351;28;20129;-86
2021/12/19 01:40:45;;;;;;;1.60;0.77;;;19.90;43.40;;;23.84;28.62;102562.72;5054932;28;20079;-85
2021/12/19 01:43:11;;;;;;;0.47;0.47;;;19.90;43.40;;;23.84;28.83;102560.03;5038974;28;20048;-85
2021/12/19 01:45:40;;;;;;;0.60;0.57;;;19.90;43.40;;;23.81;28.81;102554.81;5038771;28;20052;-86
2021/12/19 01:48:10;;;;;;;0.85;0.70;;;19.90;43.40;;;23.81;28.73;102554.81;5055236;28;20055;-85
2021/12/19 01:50:37;;;;;;;0.63;0.63;;;19.90;43.40;;;23.82;28.67;102549.44;5036898;28;20106;-86
2021/12/19 01:53:06;;;;;;;1.00;0.70;;;19.90;43.40;;;23.84;28.64;102550.22;5055235;28;20052;-85
2021/12/19 01:55:33;;;;;;;1.30;0.70;;;19.90;43.40;;;23.88;28.64;102558.09;5055244;28;20055;-85
2021/12/19 01:57:58;;;;;;;0.88;0.60;;;19.90;43.40;;;23.83;28.62;102540.47;5055127;28;20059;-85
2021/12/19 02:00:33;;;;;;;0.77;0.60;;;19.90;43.40;;;23.84;28.74;102549.34;5038394;28;20048;-85
2021/12/19 02:03:00;;;;;;;0.65;0.50;;;19.90;43.40;;;23.83;28.84;102540.47;5055357;28;20548;-85
2021/12/19 02:05:28;;;;;;;0.70;0.60;;;19.90;43.40;;;23.85;28.61;102535.91;5053902;28;20048;-85
2021/12/19 02:08:00;;;;;;;0.90;0.70;;;19.90;43.40;;;23.81;28.60;102520.94;5021809;28;20062;-86
2021/12/19 02:10:28;;;;;;;0.60;0.60;;;19.90;43.40;;;23.83;28.76;102519.09;5036184;28;20132;-85
2021/12/19 02:12:56;;;;;;;1.63;1.00;;;19.90;43.40;;;23.85;28.89;102519.88;5038835;28;20401;-85
2021/12/19 02:15:24;;;;;;;0.70;0.70;;;19.90;43.40;;;23.82;28.83;102517.38;5034677;28;20056;-85
2021/12/19 02:17:55;;;;;;;0.80;0.70;;;19.90;43.40;;;23.84;28.62;102519.97;5054518;28;20072;-86
2021/12/19 02:20:22;;;;;;;0.60;0.60;;;19.90;43.40;;;23.85;28.69;102524.34;5021759;28;20106;-85
2021/12/19 02:22:49;;;;;;;0.60;0.57;;;19.90;43.40;;;23.79;28.58;102504.13;5054793;28;20139;-85
2021/12/19 02:25:16;;;;;;;0.98;0.70;;;19.90;43.40;;;23.84;28.64;102506.63;5038106;28;20103;-85
2021/12/19 02:27:43;;;;;;;1.00;0.60;;;19.90;43.40;;;23.82;28.65;102516.47;5054533;28;20047;-85
2021/12/19 02:30:11;;;;;;;1.52;0.80;;;19.90;43.40;;;23.86;28.79;102523.44;5038172;28;20413;-85
2021/12/19 02:32:40;;;;;;;1.58;0.70;;;19.90;43.40;;;23.85;28.72;102514.53;5035962;28;20397;-85
2021/12/19 02:35:12;;;;;;;1.08;0.98;;;19.90;43.40;;;23.78;28.83;102513.06;5055092;28;20053;-86
2021/12/19 02:48:30;;;;;;;1.00;0.60;;;19.90;43.40;;;23.80;28.75;102500.50;5054204;28;20481;-85
2021/12/19 02:50:57;;;;;;;1.42;0.90;;;19.90;43.40;;;23.81;28.78;102506.72;5021572;28;20474;-85
2021/12/19 02:53:38;;;;;;;0.70;0.70;;;19.90;43.40;;;23.79;28.98;102497.91;5037803;28;20041;-85
2021/12/19 02:56:08;;;;;;;0.82;0.82;;;19.90;43.40;;;23.81;28.65;102501.38;5053996;28;20548;-85
2021/12/19 02:58:36;;;;;;;1.48;0.70;;;19.90;43.40;;;23.81;28.87;102493.38;5052703;28;20041;-85
2021/12/19 03:01:07;;;;;;;1.20;0.73;;;19.90;43.40;;;23.80;28.87;102488.97;5038237;28;20055;-85
2021/12/19 03:03:33;;;;;;;0.90;0.80;;;19.90;43.40;;;23.82;28.86;102484.44;5021588;28;20044;-85
2021/12/19 03:05:59;;;;;;;0.85;0.73;;;19.90;43.40;;;23.77;28.68;102471.28;5021239;28;20071;-85
2021/12/19 03:08:25;;;;;;;1.48;0.70;;;19.90;43.40;;;23.80;28.58;102479.13;5053718;28;20045;-85
2021/12/19 03:11:36;;;;;;;0.50;0.50;;;19.90;43.40;;;23.78;28.67;102472.16;5021208;28;20440;-85
2021/12/19 03:17:57;;;;;;;1.63;0.70;;;19.90;43.40;;;23.83;28.76;102463.00;5041854;28;20047;-85
2021/12/19 03:19:25;;;;;;;0.73;0.60;;;19.90;43.40;;;23.87;28.56;102461.03;5056324;28;19916;-85
2021/12/19 03:21:51;;;;;;;1.45;0.60;;;19.90;43.40;;;23.83;28.66;102471.00;5037387;28;20401;-85
2021/12/19 03:24:17;;;;;;;0.85;0.70;;;19.90;43.40;;;23.80;28.69;102487.16;5035775;28;20053;-85
2021/12/19 03:26:42;;;;;;;0.65;0.60;;;19.90;43.40;;;23.82;28.73;102477.31;5053851;28;20049;-85
2021/12/19 03:29:08;;;;;;;1.48;0.80;;;19.90;43.40;;;23.82;28.64;102463.94;5052835;28;20049;-86
2021/12/19 03:31:34;;;;;;;1.15;0.70;;;19.90;43.40;;;23.80;28.64;102457.75;5053948;28;20049;-85
2021/12/19 03:34:00;;;;;;;0.90;0.82;;;19.90;43.40;;;23.82;28.87;102460.41;5037239;28;20504;-85
2021/12/19 03:36:27;;;;;;;0.80;0.68;;;19.90;43.40;;;23.82;28.68;102449.72;5053394;28;20055;-85
2021/12/19 03:38:58;;;;;;;0.60;0.60;;;19.90;43.40;;;23.79;28.61;102455.16;5037458;28;20064;-86
2021/12/19 03:41:33;;;;;;;1.00;0.80;;;19.90;43.40;;;23.78;28.67;102461.47;5037848;28;20504;-85
2021/12/19 03:44:01;;;;;;;0.77;0.70;;;19.90;43.40;;;23.78;28.79;102450.78;5038605;28;20666;-85
2021/12/19 03:46:27;;;;;;;0.70;0.65;;;19.90;43.40;;;23.79;28.91;102453.38;5053780;28;20504;-86
2021/12/19 03:48:52;;;;;;;0.60;0.60;;;19.90;43.40;;;23.77;28.69;102452.59;5020731;28;20139;-85
2021/12/19 03:51:18;;;;;;;0.85;0.60;;;19.90;43.40;;;23.78;28.77;102450.78;5039918;28;20059;-85
2021/12/19 03:53:44;;;;;;;0.90;0.70;;;19.90;43.40;;;23.79;28.64;102457.84;5023975;28;20051;-85
2021/12/19 03:56:10;;;;;;;0.60;0.60;;;19.90;43.40;;;23.80;28.79;102457.75;5040740;28;20051;-85
2021/12/19 03:58:36;;;;;;;0.82;0.82;;;19.90;43.40;;;23.81;28.74;102466.66;5056942;28;20045;-85
2021/12/19 04:01:05;;;;;;;1.27;0.85;;;19.90;43.40;;;23.77;28.60;102447.25;5040293;28;20048;-85
2021/12/19 04:03:31;;;;;;;0.95;0.63;;;19.90;43.40;;;23.80;28.87;102446.22;5040845;28;20055;-85
2021/12/19 04:05:57;;;;;;;1.52;0.60;;;19.90;43.40;;;23.79;28.74;102445.38;5056959;28;20480;-85
2021/12/19 04:08:23;;;;;;;0.88;0.70;;;19.90;43.40;;;23.79;28.95;102450.72;5057164;28;20048;-85
2021/12/19 04:10:52;;;;;;;0.68;0.60;;;19.80;43.30;;;23.79;28.70;102437.34;5021819;28;20041;-85
2021/12/19 04:13:18;;;;;;;0.50;0.50;;;19.90;43.40;;;23.81;28.88;102434.59;5040168;28;20053;-86
2021/12/19 04:15:45;;;;;;;0.65;0.60;;;19.90;43.40;;;23.79;28.74;102424.00;5056995;28;20055;-85
2021/12/19 04:18:11;;;;;;;1.20;0.73;;;19.90;43.90;;;23.81;28.70;102423.94;5023624;28;20049;-86
2021/12/19 04:20:37;;;;;;;2.03;0.82;;;19.90;43.40;;;23.79;28.85;102423.13;5055135;28;20095;-85
2021/12/19 04:23:04;;;;;;;1.38;0.68;;;19.90;43.50;;;23.80;28.69;102424.84;5040187;28;20056;-85
2021/12/19 04:25:29;;;;;;;0.65;0.60;;;19.90;43.40;;;23.80;28.75;102420.38;5055991;28;20041;-85
2021/12/19 04:27:55;;;;;;;0.77;0.77;;;19.90;43.40;;;23.80;28.91;102409.69;5056452;28;20483;-86
2021/12/19 04:30:25;;;;;;;1.23;0.70;;;19.90;43.40;;;23.77;28.69;102403.63;5040033;28;20097;-85
2021/12/19 04:33:02;;;;;;;1.17;0.73;;;19.90;43.40;;;23.79;28.66;102404.41;5056975;28;20049;-85
2021/12/19 04:35:32;;;;;;;1.05;0.70;;;19.90;43.40;;;23.80;28.71;102406.16;5041169;28;20102;-86
2021/12/19 04:57:32;;;;;;;0.80;0.63;;;19.90;43.40;;;23.79;28.72;102391.06;5035108;28;20052;-85
2021/12/19 05:00:06;;;;;;;1.23;0.82;;;19.90;43.40;;;23.78;28.81;102392.03;5056815;28;20041;-85
2021/12/19 05:02:46;;;;;;;0.70;0.70;;;19.90;43.40;;;23.77;28.85;102383.16;5024778;28;20040;-85
2021/12/19 05:15:55;;;;;;;0.50;0.50;;;19.90;43.40;;;23.80;28.65;102360.75;5058476;28;20056;-86
2021/12/19 05:18:25;;;;;;;1.25;0.75;;;19.90;43.40;;;23.76;28.77;102357.38;5021924;28;20048;-85
2021/12/19 05:20:59;;;;;;;0.70;0.70;;;19.90;43.40;;;23.78;28.63;102350.16;5055068;28;20048;-85
2021/12/19 05:25:55;;;;;;;;;;;19.90;43.40;;;23.90;28.57;102359.38;5040569;28;20374;-85
2021/12/19 05:28:22;;;;;;;1.33;0.73;;;19.90;43.40;;;23.85;28.72;102343.56;5022545;28;19916;-85
2021/12/19 05:30:48;;;;;;;0.90;0.75;;;19.90;43.30;;;23.84;28.71;102339.19;5039314;28;20045;-85
2021/12/19 05:33:14;;;;;;;0.73;0.70;;;19.90;43.40;;;23.82;28.57;102343.75;5055564;28;20059;-85
2021/12/19 05:36:01;;;;;;;0.50;0.50;;;19.90;43.40;;;23.78;28.83;102327.91;5056050;28;20087;-85
2021/12/19 05:44:15;;;;;;;1.75;0.93;;;19.80;43.30;;;23.76;28.92;102319.97;5058537;28;20052;-85
2021/12/19 05:46:43;;;;;;;0.50;0.50;;;19.90;43.40;;;23.78;28.84;102314.56;5058923;28;20126;-85
2021/12/19 05:49:09;;;;;;;0.70;0.70;;;19.80;43.40;;;23.76;28.78;102311.97;5055209;28;20045;-85
2021/12/19 05:51:38;;;;;;;0.60;0.60;;;19.80;43.40;;;23.77;28.64;102308.38;5038912;28;20117;-85
2021/12/19 05:54:06;;;;;;;0.60;0.60;;;19.80;43.40;;;23.76;28.84;102314.66;5037765;28;20398;-85
2021/12/19 05:56:32;;;;;;;0.75;0.50;;;19.80;43.40;;;23.77;28.78;102313.72;5055307;28;20041;-85
2021/12/19 05:58:58;;;;;;;0.63;0.50;;;19.80;43.40;;;23.77;28.77;102315.50;5055146;28;20076;-85
2021/12/19 06:01:24;;;;;;;1.38;0.70;;;19.90;43.40;;;23.78;28.70;102306.56;5021054;28;20084;-85
2021/12/19 06:03:50;;;;;;;0.75;0.68;;;19.90;43.40;;;23.79;28.60;102314.50;5038469;28;20139;-85
2021/12/19 06:06:15;;;;;;;0.70;0.60;;;19.80;43.30;;;23.77;28.47;102303.03;5038717;28;20049;-85
2021/12/19 06:08:41;;;;;;;0.55;0.55;;;19.90;43.40;;;23.82;28.71;102316.16;5038134;28;20057;-85
2021/12/19 06:11:07;;;;;;;0.75;0.60;;;19.90;43.40;;;23.81;28.67;102306.41;5035796;28;20406;-85
2021/12/19 06:13:33;;;;;;;0.63;0.63;;;19.90;43.40;;;23.80;28.71;102310.84;5037733;28;20102;-85
2021/12/19 06:15:59;;;;;;;0.60;0.60;;;19.90;43.30;;;23.83;28.78;102308.06;5054822;28;20051;-85
2021/12/19 06:18:25;;;;;;;1.30;0.70;;;19.90;43.30;;;23.81;28.62;102304.59;5038317;28;20208;-86
2021/12/19 06:20:51;;;;;;;1.20;0.75;;;19.90;43.30;;;23.80;28.70;102310.00;5052137;28;20053;-85
2021/12/19 06:23:16;;;;;;;0.52;0.52;;;19.90;43.90;;;23.79;28.69;102295.78;5038199;28;20413;-85
2021/12/19 06:25:46;;;;;;;0.75;0.50;;;19.90;43.30;;;23.79;28.86;102279.78;5054956;28;20047;-86
2021/12/19 06:28:14;;;;;;;1.15;0.85;;;19.90;43.30;;;23.78;28.50;102304.75;5038003;28;20510;-86
2021/12/19 06:30:42;;;;;;;1.13;0.82;;;19.90;43.30;;;23.77;28.61;102292.34;5022205;28;20438;-85
2021/12/19 06:33:08;;;;;;;1.30;0.77;;;19.90;43.30;;;23.82;28.75;102302.81;5054778;28;20079;-85
2021/12/19 06:35:34;;;;;;;0.95;0.75;;;19.90;43.30;;;23.82;28.81;102298.34;5037904;28;20139;-85
2021/12/19 06:37:59;;;;;;;0.63;0.63;;;19.90;43.30;;;23.84;28.82;102306.28;5037673;28;20106;-85
2021/12/19 06:40:26;;;;;;;0.50;0.50;;;19.80;43.30;;;23.83;28.60;102301.88;5036804;28;20053;-85
2021/12/19 06:42:52;;;;;;;1.00;0.70;;;19.80;43.30;;;23.83;28.65;102293.84;5054553;28;20102;-85
2021/12/19 06:45:19;;;;;;;0.80;0.60;;;19.80;43.30;;;23.80;28.60;102288.63;5037933;28;20436;-85
2021/12/19 06:47:46;;;;;;;0.90;0.77;;;19.90;43.70;;;23.79;28.85;102290.44;5020442;28;20048;-85
2021/12/19 06:50:15;;;;;;;0.68;0.63;;;19.90;43.30;;;23.80;28.75;102285.97;5036664;28;20131;-85
2021/12/19 06:52:42;;;;;;;0.63;0.60;;;19.90;43.30;;;23.78;28.78;102293.19;5054657;28;20497;-85
2021/12/19 06:55:10;;;;;;;0.70;0.70;;;19.90;43.30;;;23.79;28.61;102294.91;5017967;28;20064;-85
2021/12/19 06:57:37;;;;;;;0.65;0.50;;;19.80;43.30;;;23.77;28.74;102289.69;5037687;28;20060;-85
2021/12/19 07:00:17;;;;;;;1.17;0.82;;;19.90;43.30;;;23.79;28.74;102294.91;5054344;28;20087;-85
2021/12/19 07:02:43;;;;;;;0.98;0.70;;;19.90;43.40;;;23.79;28.86;102285.13;5037732;28;20144;-85
2021/12/19 07:05:09;;;;;;;0.60;0.60;;;19.90;43.30;;;23.75;28.75;102280.84;5054768;28;20045;-85
2021/12/19 07:07:35;;;;;;;0.80;0.60;;;19.90;43.70;;;23.80;28.70;102288.63;5053752;28;20049;-86
2021/12/19 07:10:02;;;;;;;0.60;0.60;;;19.90;43.30;;;23.79;28.76;102287.78;5053969;28;20547;-85
2021/12/19 07:12:28;;;;;;;0.50;0.50;;;19.90;43.30;;;23.82;28.67;102294.78;5052669;28;20041;-86
2021/12/19 07:14:54;;;;;;;0.70;0.70;;;19.80;43.30;;;23.79;28.83;102279.78;5020952;28;20419;-85
2021/12/19 07:17:20;;;;;;;0.60;0.60;;;19.90;43.40;;;23.79;28.74;102276.22;5037719;28;20060;-86
2021/12/19 07:19:46;;;;;;;0.95;0.70;;;19.80;43.30;;;23.78;28.83;102267.34;5036459;28;20140;-85
2021/12/19 07:22:13;;;;;;;0.60;0.60;;;19.80;43.40;;;23.78;28.80;102263.81;5052525;28;20124;-86
2021/12/19 07:24:40;;;;;;;0.93;0.70;;;19.80;43.40;;;23.76;28.78;102257.72;5054440;28;20453;-86
2021/12/19 07:27:06;;;;;;;0.80;0.70;;;19.80;43.30;;;23.77;28.78;102265.63;5041005;28;20521;-85
2021/12/19 07:29:32;;;;;;;0.60;0.60;;;19.80;43.40;;;23.75;28.67;102264.81;5056127;28;20046;-85
2021/12/19 07:31:58;;;;;;;1.00;0.65;;;19.80;43.40;;;23.76;28.59;102265.72;5041182;28;20379;-85
2021/12/19 07:34:32;;;;;;;0.90;0.73;;;19.80;43.40;;;23.76;28.87;102263.03;5057033;28;20056;-85
2021/12/19 07:36:58;;;;;;;0.63;0.63;;;19.80;43.40;;;23.73;28.71;102253.38;5058928;28;20052;-85
2021/12/19 07:42:08;;;;;;;0.70;0.70;;;19.90;43.40;;;23.77;28.81;102268.31;5058687;28;20040;-85
2021/12/19 07:44:36;;;;;;;0.60;0.60;;;19.80;43.30;;;23.78;28.86;102267.34;5040945;28;20051;-85
2021/12/19 07:47:03;;;;;;;0.57;0.57;;;19.80;43.30;;;23.77;28.76;102264.75;5038945;28;20044;-85
2021/12/19 07:49:30;;;;;;;0.50;0.50;;;19.80;43.30;;;23.72;28.75;102267.66;5057262;28;20048;-85
2021/12/19 07:51:56;;;;;;;0.88;0.77;;;19.80;43.30;;;23.74;28.57;102262.25;5024019;28;20497;-85
2021/12/19 07:54:22;;;;;;;1.33;0.80;;;19.80;43.30;;;23.77;28.72;102262.97;5039427;28;20053;-85
2021/12/19 07:56:48;;;;;;;0.88;0.50;;;19.80;43.40;;;23.75;28.72;102261.31;5040324;28;20098;-85
2021/12/19 07:59:14;;;;;;;0.50;0.50;;;19.80;43.40;;;23.73;28.60;102256.03;5056433;28;20044;-86
2021/12/19 08:01:40;;;;;;;0.50;0.50;;;19.80;43.30;;;23.75;28.74;102261.31;5057359;28;20048;-85
2021/12/19 08:04:06;;;;;;;0.70;0.50;;;19.80;43.30;;;23.68;28.62;102237.56;5024418;28;20111;-85
2021/12/19 08:06:32;;;;;;;0.70;0.70;;;19.80;43.30;;;23.74;28.85;102260.44;5021481;28;20049;-86
2021/12/19 08:09:07;;;;;;;1.30;0.60;;;19.80;43.30;;;23.77;28.58;102249.63;5023240;28;20170;-85
2021/12/19 08:11:42;;;;;;;0.50;0.50;;;19.80;43.30;;;23.76;28.77;102250.53;5058347;28;20056;-85
2021/12/19 08:14:11;;;;;;;0.50;0.50;;;19.80;43.40;;;23.68;28.82;102237.56;5041703;28;20044;-86
2021/12/19 08:16:38;;;;;;;0.98;0.75;;;19.80;43.40;;;23.73;28.88;102240.03;5056710;28;20067;-85
2021/12/19 08:19:05;;;;;;;0.85;0.70;;;19.80;43.40;;;23.77;28.64;102238.94;5036020;28;20407;-85
2021/12/19 08:21:31;;;;;;;0.70;0.70;;;19.80;43.30;;;23.73;28.74;102231.16;5039995;28;20405;-86
2021/12/19 08:24:00;;;;;;;0.50;0.50;;;19.80;43.30;;;23.74;28.71;102227.53;5056657;28;20052;-85
2021/12/19 08:26:26;;;;;;;1.83;0.80;;;19.80;43.40;;;23.75;28.95;102231.94;5023739;28;20075;-85
2021/12/19 08:28:52;;;;;;;0.52;0.52;;;19.80;43.30;;;23.71;28.69;102215.22;5040423;28;20102;-85
2021/12/19 08:31:19;;;;;;;0.60;0.60;;;19.80;43.30;;;23.76;28.63;102229.19;5039844;28;20045;-85
2021/12/19 08:33:45;;;;;;;0.80;0.60;;;19.80;43.30;;;23.68;28.61;102223.38;5038634;28;20119;-85
2021/12/19 08:36:11;;;;;;;0.70;0.70;;;19.80;43.40;;;23.70;28.84;102217.94;5056199;28;20499;-85
2021/12/19 08:38:36;;;;;;;0.80;0.80;;;19.80;43.40;;;23.74;28.68;102219.50;5037953;28;20056;-85
2021/12/19 08:41:02;;;;;;;0.75;0.60;;;19.80;43.40;;;23.71;28.78;102209.00;5039736;28;20056;-85
2021/12/19 08:43:29;;;;;;;0.88;0.70;;;19.80;43.30;;;23.74;28.74;102214.16;5039701;28;20052;-85
2021/12/19 08:45:55;;;;;;;0.70;0.60;;;19.80;43.30;;;23.74;28.65;102215.06;5038321;28;20049;-86
2021/12/19 08:48:21;;;;;;;0.80;0.70;;;19.80;43.30;;;23.76;28.62;102221.16;5039332;28;20139;-85
2021/12/19 08:50:47;;;;;;;1.00;0.65;;;19.80;43.30;;;23.76;28.69;102209.63;5039685;28;20131;-85
2021/12/19 08:53:13;;;;;;;0.85;0.80;;;19.80;43.30;;;23.74;28.81;102211.50;5054048;28;20049;-85
2021/12/19 08:55:40;;;;;;;0.75;0.70;;;19.80;43.30;;;23.78;28.65;102221.09;5052836;28;20045;-86
2021/12/19 08:58:06;;;;;;;0.65;0.63;;;19.80;43.30;;;23.76;28.69;102215.81;5055266;28;20048;-85
2021/12/19 09:00:33;;;;;;;0.77;0.75;;;19.80;43.30;;;23.75;28.79;102218.56;5023036;28;20114;-85
2021/12/19 09:03:00;;;;;;;1.27;0.80;;;19.80;43.30;;;23.76;28.60;102229.19;5039824;28;20041;-86
2021/12/19 09:05:29;;;;;;;0.40;0.40;;;19.80;43.30;;;23.73;28.76;102224.00;5056160;28;20123;-85
2021/12/19 09:07:55;;;;;;;0.65;0.57;;;19.80;43.30;;;23.73;28.84;102221.31;5037120;28;20102;-86
2021/12/19 09:10:22;;;;;;;1.00;0.50;;;19.80;43.30;;;23.74;28.72;102224.84;5039287;28;20147;-86
2021/12/19 09:12:49;;;;;;;0.80;0.63;;;19.80;43.30;;;23.74;28.69;102224.84;5056006;28;20052;-86
2021/12/19 09:15:15;;;;;;;0.70;0.70;;;19.80;43.30;;;23.72;28.72;102210.72;5022782;28;20401;-85
2021/12/19 09:17:41;;;;;;;1.25;0.85;;;19.80;43.30;;;23.75;28.53;102207.88;5055669;28;20078;-85
2021/12/19 09:20:09;;;;;;;0.73;0.73;;;19.80;43.30;;;23.74;28.80;102207.03;5055723;28;20094;-85
2021/12/19 09:22:35;;;;;;;0.77;0.70;;;19.80;43.30;;;23.68;28.65;102192.19;5039087;28;20076;-85
2021/12/19 09:25:03;;;;;;;1.00;0.70;;;19.80;43.30;;;23.74;28.72;102203.47;5055810;28;20489;-85
2021/12/19 09:27:29;;;;;;;0.90;0.70;;;19.80;43.30;;;23.73;28.78;102205.31;5022486;28;20044;-85
2021/12/19 09:29:54;;;;;;;1.20;0.70;;;19.80;43.30;;;23.75;28.91;102202.56;5038894;28;20400;-85
2021/12/19 09:32:20;;;;;;;0.70;0.70;;;19.80;43.30;;;23.73;28.79;102199.97;5039270;28;20066;-86
2021/12/19 09:34:46;;;;;;;0.65;0.50;;;19.80;43.30;;;23.74;28.63;102199.03;5055657;28;20401;-85
2021/12/19 09:37:13;;;;;;;0.50;0.50;;;19.80;43.30;;;23.73;28.74;102199.97;5037118;28;20457;-85
2021/12/19 09:39:40;;;;;;;0.57;0.57;;;19.80;43.30;;;23.75;28.57;102192.72;5054623;28;20056;-85
2021/12/19 09:42:14;;;;;;;0.70;0.60;;;19.80;43.30;;;23.72;28.71;102187.53;5022272;28;20048;-85
2021/12/19 09:44:40;;;;;;;0.85;0.63;;;19.80;43.80;;;23.74;28.81;102182.13;5056639;28;20044;-86
2021/12/19 09:47:08;;;;;;;1.45;0.85;;;19.80;43.30;;;23.73;28.81;102180.41;5037970;28;20075;-85
2021/12/19 09:49:35;;;;;;;0.60;0.60;;;19.80;43.30;;;23.74;28.50;102180.34;5036920;28;20087;-85
2021/12/19 09:52:08;;;;;;;0.50;0.50;;;19.80;43.30;;;23.73;28.60;102181.25;5055308;28;20452;-85
2021/12/19 09:54:39;;;;;;;0.80;0.60;;;19.80;43.30;;;23.73;28.70;102165.25;5039151;28;20072;-85
2021/12/19 09:57:06;;;;;;;0.60;0.60;;;19.80;43.30;;;23.74;28.64;102169.66;5054343;28;20049;-85
2021/12/19 09:59:32;;;;;;;0.50;0.50;;;19.80;43.20;;;23.75;28.81;102176.69;5020022;28;20508;-86
2021/12/19 10:01:58;;;;;;;0.57;0.57;;;19.80;43.20;;;23.74;28.78;102160.75;5037953;28;20578;-85
2021/12/19 10:04:38;;;;;;;0.50;0.50;;;19.80;43.20;;;23.74;28.71;102169.66;5037216;28;20098;-85
2021/12/19 10:07:14;;;;;;;0.75;0.60;;;19.80;43.20;;;23.78;28.61;102167.69;5054992;28;20063;-85
2021/12/19 10:09:59;;;;;;;0.70;0.50;;;19.90;43.20;;;23.76;28.68;102165.09;5055069;28;20063;-85
2021/12/19 10:15:18;;;;;;;0.60;0.60;;;19.90;43.30;;;23.72;28.72;102165.31;5038604;28;20087;-85
2021/12/19 10:17:44;;;;;;;0.75;0.60;;;19.80;43.30;;;23.73;28.69;102159.03;5054200;28;20126;-85
2021/12/19 10:20:14;;;;;;;1.95;0.90;;;19.80;43.20;;;23.73;28.69;102159.91;5054905;28;20082;-85
2021/12/19 10:22:45;;;;;;;1.35;0.70;;;19.80;43.20;;;23.75;28.84;102157.16;5038105;28;20486;-85
2021/12/19 10:25:21;;;;;;;0.95;0.73;;;19.80;43.20;;;23.77;28.58;102136.56;5037822;28;20049;-85
2021/12/19 10:28:09;;;;;;;0.47;0.40;;;19.80;43.20;;;23.74;28.64;102132.25;5038001;28;20082;-85
2021/12/19 10:30:46;;;;;;;0.63;0.60;;;19.80;43.20;;;23.72;28.53;102138.63;5038338;28;20491;-85
2021/12/19 10:33:14;;;;;;;0.75;0.75;;;19.90;43.20;;;23.76;28.69;102138.38;5038599;28;20071;-85
2021/12/19 10:35:51;;;;;;;1.23;0.63;;;19.90;43.20;;;23.70;28.85;102125.34;5038213;28;20045;-85
2021/12/19 10:38:20;;;;;;;1.10;0.70;;;19.90;43.20;;;23.75;28.75;102130.44;5054598;28;20044;-85
2021/12/19 10:41:02;;;;;;;0.70;0.70;;;19.90;43.10;;;23.75;28.67;102133.13;5038005;28;20090;-85
2021/12/19 10:43:32;;;;;;;0.90;0.60;;;19.90;43.10;;;23.77;28.51;102123.22;5054945;28;20045;-85
2021/12/19 10:46:03;;;;;;;1.20;0.85;;;19.90;43.20;;;23.74;28.58;102113.56;5054646;28;20058;-86
2021/12/19 10:48:39;;;;;;;0.50;0.50;;;19.80;43.20;;;23.74;28.79;102116.25;5036602;28;20067;-85
2021/12/19 10:51:11;;;;;;;0.70;0.50;;;19.90;43.20;;;23.73;28.76;102125.19;5054536;28;20076;-86
2021/12/19 10:53:46;;;;;;;0.80;0.60;;;19.90;43.30;;;23.71;28.63;102102.19;5038119;28;20058;-85
2021/12/19 10:56:20;;;;;;;0.80;0.60;;;19.90;43.20;;;23.73;28.71;102093.13;5037846;28;20404;-86
2021/12/19 10:58:51;;;;;;;0.82;0.50;;;19.90;43.20;;;23.77;28.57;102089.38;5039405;28;20045;-85
2021/12/19 11:01:41;;;;;;;0.65;0.60;;;19.90;43.20;;;23.77;28.64;102094.72;5061360;28;20056;-85
2021/12/19 11:04:18;;;;;;;1.48;0.60;;;19.90;43.70;;;23.72;28.63;102102.09;5060982;28;20056;-86
2021/12/19 11:06:54;;;;;;;0.50;0.47;;;19.90;43.20;;;23.72;28.62;102091.41;5027589;28;20378;-85
2021/12/19 11:09:27;;;;;;;1.48;0.70;;;19.90;43.10;;;23.77;28.83;102077.81;5027143;28;20052;-85
2021/12/19 11:12:10;;;;;;;1.38;0.77;;;19.90;43.10;;;23.74;28.64;102083.31;5060927;28;20049;-85
2021/12/19 11:14:42;;;;;;;1.20;0.60;;;19.90;43.20;;;23.74;28.62;102091.31;5044150;28;20056;-85
2021/12/19 11:17:22;;;;;;;0.70;0.70;;;19.90;43.20;;;23.75;28.78;102093.91;5044210;28;20048;-85
2021/12/19 11:19:55;;;;;;;0.68;0.55;;;19.90;43.20;;;23.72;28.56;102090.53;5060738;28;20048;-85
2021/12/19 11:22:25;;;;;;;0.40;0.40;;;19.90;43.20;;;23.76;28.60;102084.13;5059415;28;20483;-85
2021/12/19 11:24:54;;;;;;;0.40;0.40;;;19.90;43.20;;;23.74;28.67;102070.84;5060795;28;20555;-85